createdAt,value
2018-11-22T12:17:49.871Z,27.73
2018-11-22T12:20:19.348Z,26.90
2018-11-22T12:22:50.251Z,26.40
2018-11-22T12:25:22.511Z,27.67
2018-11-22T12:27:53.488Z,27.13
2018-11-22T12:30:24.105Z,26.03
2018-11-22T12:33:00.075Z,27.57
2018-11-22T12:35:34.287Z,26.80
2018-11-22T12:38:08.990Z,28.73
2018-11-22T12:40:39.448Z,27.73
2018-11-22T12:43:08.615Z,26.10
2018-11-22T12:45:37.904Z,29.20
2018-11-22T12:48:06.989Z,29.43
2018-11-22T12:50:36.213Z,29.20
2018-11-22T12:53:05.538Z,28.27
2018-11-22T12:55:34.811Z,29.90
2018-11-22T12:58:04.104Z,28.90
2018-11-22T13:00:34.247Z,28.87
2018-11-22T13:03:03.612Z,27.80
2018-11-22T13:05:32.731Z,29.60
2018-11-22T13:08:02.092Z,32.57
2018-11-22T13:10:31.272Z,32.40
2018-11-22T13:13:00.428Z,33.00
2018-11-22T13:15:29.666Z,33.20
2018-11-22T13:17:58.856Z,32.40
2018-11-22T13:20:28.126Z,32.97
2018-11-22T13:22:57.360Z,30.90
2018-11-22T13:25:26.557Z,31.43
2018-11-22T13:27:55.800Z,32.00
2018-11-22T13:30:26.451Z,31.50
2018-11-22T13:32:57.128Z,32.90
2018-11-22T13:35:26.336Z,31.67
2018-11-22T13:37:56.456Z,32.33
2018-11-22T13:40:25.644Z,32.27
2018-11-22T13:42:55.388Z,32.10
2018-11-22T13:45:25.958Z,32.67
2018-11-22T13:47:55.768Z,33.63
2018-11-22T13:50:27.857Z,32.10
2018-11-22T13:53:00.736Z,30.73
2018-11-22T13:55:29.975Z,30.47
2018-11-22T13:57:59.179Z,29.57
2018-11-22T14:00:29.774Z,30.70
2018-11-22T14:03:00.577Z,31.33
2018-11-22T14:05:29.718Z,29.30
2018-11-22T14:07:58.913Z,29.57
2018-11-22T14:10:28.108Z,32.23
2018-11-22T14:12:57.302Z,30.40
2018-11-22T14:15:27.763Z,30.60
2018-11-22T14:17:58.497Z,33.27
2018-11-22T14:20:29.238Z,33.17
2018-11-22T14:22:58.584Z,31.00
2018-11-22T14:25:27.957Z,32.17
2018-11-22T14:27:57.184Z,33.17
2018-11-22T14:30:29.076Z,32.43
2018-11-22T14:32:58.292Z,32.13
2018-11-22T14:35:27.847Z,33.27
2018-11-22T14:37:56.988Z,32.23
2018-11-22T14:40:29.377Z,34.00
2018-11-22T14:42:58.922Z,32.63
2018-11-22T14:45:29.201Z,35.00
2018-11-22T14:47:59.551Z,33.30
2018-11-22T14:50:48.396Z,36.00
2018-11-22T14:53:19.415Z,34.10
2018-11-22T14:55:48.705Z,33.13
2018-11-22T14:58:17.923Z,34.63
2018-11-22T15:00:47.103Z,34.40
2018-11-22T15:03:17.026Z,33.07
2018-11-22T15:05:46.222Z,32.97
2018-11-22T15:08:15.363Z,33.00
2018-11-22T15:10:44.545Z,32.67
2018-11-22T15:13:13.726Z,34.13
2018-11-22T15:15:42.932Z,36.20
2018-11-22T15:18:13.039Z,36.23
2018-11-22T15:20:42.239Z,36.13
2018-11-22T15:23:11.416Z,37.03
2018-11-22T15:25:40.661Z,39.43
2018-11-22T15:28:09.828Z,37.40
2018-11-22T15:30:39.740Z,38.43
2018-11-22T15:33:09.887Z,38.27
2018-11-22T15:35:39.060Z,36.50
2018-11-22T15:38:08.343Z,41.00
2018-11-22T15:40:37.589Z,38.77
2018-11-22T15:43:06.840Z,37.97
2018-11-22T15:45:36.049Z,36.60
2018-11-22T15:48:05.137Z,35.00
2018-11-22T15:50:34.300Z,34.83
2018-11-22T15:53:03.520Z,36.93
2018-11-22T15:55:32.691Z,35.63
2018-11-22T15:58:01.984Z,34.53
2018-11-22T16:00:33.447Z,34.63
2018-11-22T16:03:03.327Z,33.07
2018-11-22T16:05:33.318Z,34.13
2018-11-22T16:08:02.464Z,32.37
2018-11-22T16:10:36.328Z,31.87
2018-11-22T16:13:10.454Z,35.93
2018-11-22T16:15:45.802Z,34.47
2018-11-22T16:18:14.964Z,34.93
2018-11-22T16:20:44.318Z,33.50
2018-11-22T16:23:13.510Z,33.57
2018-11-22T16:25:42.639Z,35.43
2018-11-22T16:28:11.950Z,37.13
2018-11-22T16:30:42.130Z,35.67
2018-11-22T16:33:11.603Z,37.07
2018-11-22T16:35:42.936Z,36.33
2018-11-22T16:38:12.193Z,36.63
2018-11-22T16:40:41.507Z,35.70
2018-11-22T16:43:10.851Z,38.33
2018-11-22T16:45:40.554Z,38.40
2018-11-22T16:48:12.824Z,39.23
2018-11-22T16:50:42.694Z,40.60
2018-11-22T16:53:11.801Z,38.20
2018-11-22T16:55:41.038Z,39.93
2018-11-22T16:58:10.368Z,39.60
2018-11-22T17:00:40.539Z,39.20
2018-11-22T17:03:11.868Z,38.63
2018-11-22T17:05:41.628Z,36.30
2018-11-22T17:08:11.811Z,35.00
2018-11-22T17:10:41.484Z,35.80
2018-11-22T17:13:10.735Z,36.03
2018-11-22T17:15:41.008Z,33.77
2018-11-22T17:18:10.863Z,33.00
2018-11-22T17:20:40.090Z,34.03
2018-11-22T17:23:09.363Z,35.23
2018-11-22T17:25:38.697Z,35.70
2018-11-22T17:28:09.063Z,36.40
2018-11-22T17:30:39.777Z,34.07
2018-11-22T17:33:08.989Z,38.17
2018-11-22T17:35:38.463Z,38.00
2018-11-22T17:38:08.823Z,35.60
2018-11-22T17:40:40.534Z,34.67
2018-11-22T17:43:09.799Z,32.43
2018-11-22T17:45:40.309Z,32.57
2018-11-22T17:48:10.199Z,31.93
2018-11-22T17:50:41.344Z,31.10
2018-11-22T17:53:11.253Z,31.87
2018-11-22T17:55:40.568Z,30.40
2018-11-22T17:58:09.995Z,29.77
2018-11-22T18:00:42.513Z,29.77
2018-11-22T18:03:11.715Z,47.50
2018-11-22T18:05:40.882Z,29.87
2018-11-22T18:08:10.568Z,29.23
2018-11-22T18:10:40.733Z,30.27
2018-11-22T18:13:09.877Z,29.10
2018-11-22T18:15:57.174Z,30.33
2018-11-22T18:18:27.064Z,30.70
2018-11-22T18:20:56.218Z,29.20
2018-11-22T18:23:25.448Z,29.97
2018-11-22T18:25:54.615Z,30.97
2018-11-22T18:28:23.744Z,29.27
2018-11-22T18:30:53.035Z,30.00
2018-11-22T18:33:22.948Z,30.97
2018-11-22T18:35:52.168Z,27.57
2018-11-22T18:38:21.302Z,28.63
2018-11-22T18:40:50.791Z,26.33
2018-11-22T18:43:20.211Z,27.10
2018-11-22T18:45:49.699Z,26.27
2018-11-22T18:48:19.841Z,26.17
2018-11-22T18:50:49.068Z,27.10
2018-11-22T18:53:18.630Z,27.70
2018-11-22T18:55:50.118Z,28.13
2018-11-22T18:58:19.168Z,26.50
2018-11-22T19:00:48.977Z,26.63
2018-11-22T19:03:21.267Z,26.90
2018-11-22T19:05:52.150Z,26.50
2018-11-22T19:08:21.282Z,28.90
2018-11-22T19:10:50.475Z,27.77
2018-11-22T19:13:19.685Z,28.00
2018-11-22T19:15:49.444Z,28.13
2018-11-22T19:18:18.924Z,27.33
2018-11-22T19:20:48.107Z,26.90
2018-11-22T19:23:17.487Z,28.33
2018-11-22T19:25:46.728Z,31.37
2018-11-22T19:28:15.884Z,30.03
2018-11-22T19:30:46.404Z,28.73
2018-11-22T19:33:16.932Z,30.10
2018-11-22T19:35:47.723Z,30.30
2018-11-22T19:38:16.904Z,32.67
2018-11-22T19:40:46.245Z,28.93
2018-11-22T19:43:15.449Z,31.03
2018-11-22T19:45:46.171Z,28.27
2018-11-22T19:48:15.689Z,27.70
2018-11-22T19:50:44.992Z,31.13
2018-11-22T19:53:15.739Z,30.97
2018-11-22T19:55:45.080Z,31.93
2018-11-22T19:58:15.360Z,31.53
2018-11-22T20:00:44.663Z,31.13
2018-11-22T20:03:13.820Z,33.50
2018-11-22T20:05:43.476Z,34.57
2018-11-22T20:08:14.597Z,32.20
2018-11-22T20:10:44.861Z,32.13
2018-11-22T20:13:14.354Z,31.87
2018-11-22T20:15:43.663Z,30.53
2018-11-22T20:18:13.254Z,28.20
2018-11-22T20:20:43.055Z,30.00
2018-11-22T20:23:11.498Z,27.50
2018-11-22T20:25:40.656Z,28.30
2018-11-22T20:28:09.931Z,27.17
2018-11-22T20:30:40.615Z,27.63
2018-11-22T20:33:09.784Z,25.30
2018-11-22T20:35:39.014Z,25.03
2018-11-22T20:38:08.267Z,23.93
2018-11-22T20:40:37.532Z,22.33
2018-11-22T20:43:06.943Z,23.00
2018-11-22T20:45:40.818Z,23.60
2018-11-22T20:48:06.922Z,23.03
2018-11-22T20:50:36.576Z,22.90
2018-11-22T20:53:06.298Z,22.57
2018-11-22T20:55:37.207Z,22.50
2018-11-22T20:58:07.221Z,22.43
2018-11-22T21:00:38.652Z,21.63
2018-11-22T21:03:07.767Z,21.40
2018-11-22T21:05:37.551Z,19.93
2018-11-22T21:08:06.738Z,20.37
2018-11-22T21:10:36.074Z,20.93
2018-11-22T21:13:05.383Z,18.77
2018-11-22T21:15:35.323Z,19.53
2018-11-22T21:18:05.806Z,19.43
2018-11-22T21:20:36.599Z,18.33
2018-11-22T21:23:05.880Z,18.10
2018-11-22T21:25:35.995Z,17.83
2018-11-22T21:28:05.583Z,18.73
2018-11-22T21:30:36.845Z,16.50
2018-11-22T21:33:06.194Z,17.17
2018-11-22T21:35:35.784Z,16.13
2018-11-22T21:38:06.297Z,14.37
2018-11-22T21:40:35.917Z,15.17
2018-11-22T21:43:05.397Z,14.47
2018-11-22T21:45:35.323Z,14.97
2018-11-22T21:48:04.712Z,14.10
2018-11-22T21:50:33.945Z,16.33
2018-11-22T21:53:03.113Z,16.77
2018-11-22T21:55:32.333Z,13.60
2018-11-22T21:58:02.372Z,14.83
2018-11-22T22:00:41.483Z,14.00
2018-11-22T22:03:11.614Z,12.87
2018-11-22T22:05:41.615Z,13.80
2018-11-22T22:08:11.015Z,13.20
2018-11-22T22:10:40.155Z,13.43
2018-11-22T22:13:09.954Z,13.63
2018-11-22T22:15:39.533Z,12.80
2018-11-22T22:18:09.562Z,14.10
2018-11-22T22:20:38.805Z,14.47
2018-11-22T22:23:13.181Z,14.37
2018-11-22T22:25:38.068Z,14.47
2018-11-22T22:28:07.193Z,14.93
2018-11-22T22:30:36.370Z,16.00
2018-11-22T22:33:07.331Z,14.97
2018-11-22T22:35:36.445Z,15.17
2018-11-22T22:38:05.736Z,15.93
2018-11-22T22:40:34.912Z,15.37
2018-11-22T22:43:04.149Z,15.47
2018-11-22T22:45:34.094Z,15.33
2018-11-22T22:48:04.165Z,15.80
2018-11-22T22:50:34.539Z,15.43
2018-11-22T22:53:04.455Z,16.43
2018-11-22T22:55:33.674Z,16.43
2018-11-22T22:58:02.997Z,16.17
2018-11-22T23:00:37.183Z,17.87
2018-11-22T23:03:07.798Z,15.57
2018-11-22T23:05:37.476Z,16.67
2018-11-22T23:08:06.883Z,16.10
2018-11-22T23:10:36.120Z,16.37
2018-11-22T23:13:06.123Z,16.00
2018-11-22T23:15:35.322Z,16.00
2018-11-22T23:18:04.676Z,15.70
2018-11-22T23:20:35.309Z,17.13
2018-11-22T23:23:04.427Z,15.67
2018-11-22T23:25:33.551Z,15.60
2018-11-22T23:28:02.707Z,16.97
2018-11-22T23:30:32.983Z,18.03
2018-11-22T23:33:03.519Z,17.07
2018-11-22T23:35:32.630Z,17.47
2018-11-22T23:38:01.764Z,17.80
2018-11-22T23:40:31.867Z,17.70
2018-11-22T23:43:01.033Z,17.57
2018-11-22T23:45:31.180Z,18.27
2018-11-22T23:48:01.134Z,17.67
2018-11-22T23:50:32.466Z,17.50
2018-11-22T23:53:03.399Z,17.90
2018-11-22T23:55:33.180Z,17.23
2018-11-22T23:58:02.407Z,16.57
